createdAt,value
2023-03-03T00:01:45.693Z,100.00
2023-03-03T00:04:13.348Z,100.00
2023-03-03T00:06:41.002Z,100.00
2023-03-03T00:09:09.991Z,100.00
2023-03-03T00:11:37.670Z,100.00
2023-03-03T00:14:19.598Z,100.00
2023-03-03T00:16:49.120Z,100.00
2023-03-03T00:19:20.261Z,100.00
2023-03-03T00:21:49.821Z,100.00
2023-03-03T00:24:24.039Z,100.00
2023-03-03T00:26:55.415Z,100.00
2023-03-03T00:29:36.613Z,100.00
2023-03-03T00:32:19.387Z,100.00
2023-03-03T00:34:47.858Z,100.00
2023-03-03T00:37:26.608Z,100.00
2023-03-03T00:40:03.549Z,100.00
2023-03-03T00:42:35.504Z,100.00
2023-03-03T00:45:03.937Z,100.00
2023-03-03T00:47:32.765Z,100.00
2023-03-03T00:50:27.140Z,100.00
2023-03-03T00:53:01.849Z,100.00
2023-03-03T00:55:31.957Z,100.00
2023-03-03T00:57:59.778Z,100.00
2023-03-03T01:00:34.188Z,100.00
2023-03-03T01:03:05.362Z,100.00
2023-03-03T01:05:33.675Z,100.00
2023-03-03T01:08:01.835Z,100.00
2023-03-03T01:10:33.594Z,100.00
2023-03-03T01:13:01.344Z,100.00
2023-03-03T01:15:29.226Z,100.00
2023-03-03T01:17:57.172Z,100.00
2023-03-03T01:20:25.029Z,100.00
2023-03-03T01:22:52.811Z,100.00
2023-03-03T01:25:20.490Z,100.00
2023-03-03T01:27:49.515Z,100.00
2023-03-03T01:30:17.567Z,100.00
2023-03-03T01:32:45.304Z,100.00
2023-03-03T01:35:13.169Z,100.00
2023-03-03T01:37:41.205Z,100.00
2023-03-03T01:40:15.690Z,100.00
2023-03-03T01:42:43.500Z,100.00
2023-03-03T01:45:17.016Z,100.00
2023-03-03T01:47:49.722Z,100.00
2023-03-03T01:50:27.608Z,100.00
2023-03-03T01:52:56.005Z,100.00
2023-03-03T01:55:27.024Z,100.00
2023-03-03T01:57:59.687Z,100.00
2023-03-03T02:00:29.741Z,100.00
2023-03-03T02:02:57.757Z,100.00
2023-03-03T02:05:26.025Z,100.00
2023-03-03T02:07:54.328Z,100.00
2023-03-03T02:10:22.876Z,100.00
2023-03-03T02:12:52.777Z,100.00
2023-03-03T02:15:22.650Z,100.00
2023-03-03T02:17:54.476Z,100.00
2023-03-03T02:20:34.798Z,100.00
2023-03-03T02:23:12.320Z,100.00
2023-03-03T02:25:47.933Z,100.00
2023-03-03T02:28:17.207Z,100.00
2023-03-03T02:30:45.186Z,100.00
2023-03-03T02:33:12.817Z,100.00
2023-03-03T02:35:41.864Z,100.00
2023-03-03T02:38:19.016Z,100.00
2023-03-03T02:40:53.002Z,100.00
2023-03-03T02:43:26.425Z,100.00
2023-03-03T02:45:54.128Z,100.00
2023-03-03T02:48:21.739Z,100.00
2023-03-03T02:50:49.444Z,100.00
2023-03-03T02:53:17.089Z,100.00
2023-03-03T02:55:44.865Z,100.00
2023-03-03T02:58:12.519Z,100.00
2023-03-03T03:00:41.591Z,100.00
2023-03-03T03:03:09.323Z,100.00
2023-03-03T03:05:39.437Z,100.00
2023-03-03T03:08:07.577Z,98.11
2023-03-03T03:10:35.500Z,97.77
2023-03-03T03:13:03.467Z,98.07
2023-03-03T03:15:31.307Z,98.08
2023-03-03T03:18:00.580Z,97.13
2023-03-03T03:20:28.721Z,96.28
2023-03-03T03:22:56.376Z,95.67
2023-03-03T03:25:24.322Z,95.90
2023-03-03T03:27:52.605Z,98.51
2023-03-03T03:30:22.443Z,96.50
2023-03-03T03:32:50.403Z,96.37
2023-03-03T03:35:20.304Z,96.38
2023-03-03T03:37:48.026Z,97.93
2023-03-03T03:40:15.952Z,100.00
2023-03-03T03:42:43.555Z,98.98
2023-03-03T03:45:15.230Z,100.00
2023-03-03T03:47:45.042Z,100.00
2023-03-03T03:50:14.805Z,100.00
2023-03-03T03:52:44.777Z,100.00
2023-03-03T03:55:13.658Z,100.00
2023-03-03T03:57:41.992Z,100.00
2023-03-03T04:00:12.360Z,100.00
2023-03-03T04:02:50.075Z,100.00
2023-03-03T04:05:19.538Z,100.00
2023-03-03T04:07:48.941Z,100.00
2023-03-03T04:10:19.175Z,100.00
2023-03-03T04:12:47.921Z,100.00
2023-03-03T04:15:16.337Z,100.00
2023-03-03T04:17:44.993Z,100.00
2023-03-03T04:20:15.367Z,100.00
2023-03-03T04:22:45.210Z,100.00
2023-03-03T04:25:16.956Z,100.00
2023-03-03T04:27:46.517Z,100.00
2023-03-03T04:30:17.288Z,100.00
2023-03-03T04:32:49.592Z,100.00
2023-03-03T04:35:20.794Z,100.00
2023-03-03T04:37:48.491Z,99.45
2023-03-03T04:40:18.884Z,100.00
2023-03-03T04:42:48.986Z,99.89
2023-03-03T04:45:16.803Z,100.00
2023-03-03T04:47:46.970Z,100.00
2023-03-03T04:50:15.127Z,100.00
2023-03-03T04:52:43.498Z,100.00
2023-03-03T04:55:14.075Z,100.00
2023-03-03T04:57:43.804Z,100.00
2023-03-03T05:00:13.400Z,100.00
2023-03-03T05:02:41.384Z,100.00
2023-03-03T05:05:11.157Z,100.00
2023-03-03T05:07:38.826Z,100.00
2023-03-03T05:10:07.797Z,100.00
2023-03-03T05:12:35.398Z,100.00
2023-03-03T05:15:05.058Z,100.00
2023-03-03T05:17:32.769Z,100.00
2023-03-03T05:20:00.354Z,100.00
2023-03-03T05:22:28.525Z,100.00
2023-03-03T05:24:56.130Z,100.00
2023-03-03T05:27:23.731Z,100.00
2023-03-03T05:29:51.581Z,100.00
2023-03-03T05:32:20.578Z,100.00
2023-03-03T05:34:48.294Z,100.00
2023-03-03T05:37:16.318Z,100.00
2023-03-03T05:39:44.630Z,100.00
2023-03-03T05:42:13.936Z,100.00
2023-03-03T05:44:41.855Z,100.00
2023-03-03T05:47:09.745Z,100.00
2023-03-03T05:49:39.110Z,100.00
2023-03-03T05:52:06.978Z,100.00
2023-03-03T05:54:34.703Z,100.00
2023-03-03T05:57:03.019Z,100.00
2023-03-03T05:59:30.763Z,100.00
2023-03-03T06:01:58.706Z,100.00
2023-03-03T06:04:26.650Z,100.00
2023-03-03T06:06:55.738Z,100.00
2023-03-03T06:09:23.584Z,100.00
2023-03-03T06:11:52.817Z,100.00
2023-03-03T06:14:21.023Z,100.00
2023-03-03T06:16:48.741Z,100.00
2023-03-03T06:19:17.733Z,100.00
2023-03-03T06:21:45.573Z,100.00
2023-03-03T06:24:14.525Z,100.00
2023-03-03T06:26:42.207Z,100.00
2023-03-03T06:29:09.882Z,100.00
2023-03-03T06:31:37.677Z,100.00
2023-03-03T06:34:05.354Z,100.00
2023-03-03T06:36:32.993Z,100.00
2023-03-03T06:39:00.980Z,100.00
2023-03-03T06:41:30.236Z,100.00
2023-03-03T06:43:58.276Z,100.00
2023-03-03T06:46:25.948Z,100.00
2023-03-03T06:48:53.652Z,100.00
2023-03-03T06:51:26.669Z,100.00
2023-03-03T06:53:57.343Z,100.00
2023-03-03T06:56:25.384Z,100.00
2023-03-03T06:58:58.297Z,100.00
2023-03-03T07:01:26.257Z,100.00
2023-03-03T07:03:54.302Z,100.00
2023-03-03T07:06:25.329Z,100.00
2023-03-03T07:08:53.939Z,100.00
2023-03-03T07:11:23.844Z,100.00
2023-03-03T07:13:52.968Z,100.00
2023-03-03T07:16:26.441Z,100.00
2023-03-03T07:18:56.195Z,100.00
2023-03-03T07:21:26.481Z,100.00
2023-03-03T07:23:54.841Z,100.00
2023-03-03T07:26:26.065Z,100.00
2023-03-03T07:28:55.998Z,100.00
2023-03-03T07:31:31.332Z,100.00
2023-03-03T07:34:00.705Z,100.00
2023-03-03T07:36:31.370Z,100.00
2023-03-03T07:39:02.023Z,100.00
2023-03-03T07:41:30.820Z,100.00
2023-03-03T07:44:04.918Z,100.00
2023-03-03T07:46:42.595Z,100.00
2023-03-03T07:49:22.737Z,98.81
2023-03-03T07:51:54.943Z,94.49
2023-03-03T07:54:31.106Z,93.22
2023-03-03T07:57:03.117Z,94.43
2023-03-03T07:59:32.131Z,94.65
2023-03-03T08:02:01.447Z,91.99
2023-03-03T08:04:33.425Z,89.19
2023-03-03T08:07:03.114Z,87.39
2023-03-03T08:09:45.012Z,86.75
2023-03-03T08:12:35.009Z,88.28
2023-03-03T08:15:17.856Z,90.57
2023-03-03T08:17:48.186Z,88.83
2023-03-03T08:20:49.596Z,88.94
2023-03-03T08:23:19.020Z,90.07
2023-03-03T08:25:48.298Z,86.52
2023-03-03T08:28:16.487Z,87.16
2023-03-03T08:30:45.488Z,87.76
2023-03-03T08:33:15.202Z,89.38
2023-03-03T08:35:43.498Z,89.24
2023-03-03T08:38:12.241Z,87.87
2023-03-03T08:40:40.029Z,88.32
2023-03-03T08:43:07.953Z,87.04
2023-03-03T08:45:36.696Z,86.77
2023-03-03T08:48:06.109Z,85.00
2023-03-03T08:50:35.609Z,85.60
2023-03-03T08:53:03.589Z,86.26
2023-03-03T08:55:31.652Z,85.75
2023-03-03T08:57:59.696Z,86.54
2023-03-03T09:00:27.468Z,87.94
2023-03-03T09:02:56.643Z,84.17
2023-03-03T09:05:25.510Z,85.49
2023-03-03T09:07:55.239Z,84.14
2023-03-03T09:10:27.532Z,84.07
2023-03-03T09:12:58.169Z,85.63
2023-03-03T09:15:28.548Z,82.41
2023-03-03T09:17:59.670Z,82.23
2023-03-03T09:20:36.485Z,80.09
2023-03-03T09:23:30.243Z,80.88
2023-03-03T09:25:59.093Z,79.85
2023-03-03T09:28:28.901Z,77.83
2023-03-03T09:31:00.207Z,80.31
2023-03-03T09:33:33.493Z,83.15
2023-03-03T09:36:15.978Z,81.29
2023-03-03T09:38:46.787Z,77.03
2023-03-03T09:41:58.978Z,78.03
2023-03-03T09:44:45.727Z,75.70
2023-03-03T09:47:33.060Z,76.11
2023-03-03T09:50:08.915Z,75.93
2023-03-03T09:52:46.191Z,75.70
2023-03-03T09:55:30.156Z,76.39
2023-03-03T09:58:14.573Z,76.64
2023-03-03T10:00:55.835Z,77.52
2023-03-03T10:03:46.543Z,74.94
2023-03-03T10:06:23.086Z,75.18
2023-03-03T10:09:04.146Z,76.53
2023-03-03T10:11:41.694Z,71.61
2023-03-03T10:14:26.918Z,72.64
2023-03-03T10:17:18.972Z,72.36
2023-03-03T10:19:59.199Z,73.13
2023-03-03T10:22:42.114Z,69.29
2023-03-03T10:25:22.318Z,68.84
2023-03-03T10:28:05.034Z,68.37
2023-03-03T10:30:58.480Z,69.06
2023-03-03T10:33:39.042Z,66.65
2023-03-03T10:36:36.062Z,69.19
2023-03-03T10:39:39.736Z,68.08
2023-03-03T10:42:22.994Z,66.71
2023-03-03T10:45:05.789Z,65.37
2023-03-03T10:47:53.804Z,63.95
2023-03-03T10:50:28.061Z,63.89
2023-03-03T10:53:07.041Z,65.20
2023-03-03T10:55:43.672Z,66.97
2023-03-03T10:58:37.062Z,64.29
2023-03-03T11:01:19.187Z,63.77
2023-03-03T11:04:02.784Z,63.39
2023-03-03T11:06:39.599Z,62.54
2023-03-03T11:09:17.293Z,61.37
2023-03-03T11:11:53.316Z,60.97
2023-03-03T11:14:27.864Z,60.84
2023-03-03T11:17:02.694Z,60.70
2023-03-03T11:19:47.260Z,60.56
2023-03-03T11:22:26.400Z,60.92
2023-03-03T11:25:09.482Z,61.14
2023-03-03T11:27:56.122Z,62.86
2023-03-03T11:30:37.244Z,62.11
2023-03-03T11:33:10.701Z,60.71
2023-03-03T11:35:45.988Z,59.77
2023-03-03T11:38:26.760Z,58.65
2023-03-03T11:40:58.196Z,58.54
2023-03-03T11:43:36.939Z,57.92
2023-03-03T11:46:10.643Z,58.36
2023-03-03T11:48:47.551Z,56.93
2023-03-03T11:51:21.150Z,56.82
2023-03-03T11:53:58.892Z,56.03
2023-03-03T11:56:30.878Z,56.93
2023-03-03T11:59:20.199Z,57.58
2023-03-03T12:01:53.941Z,57.02
2023-03-03T12:04:30.752Z,55.52
2023-03-03T12:07:19.830Z,57.14
2023-03-03T12:10:00.134Z,56.96
2023-03-03T12:12:34.167Z,56.74
2023-03-03T12:15:10.167Z,57.76
2023-03-03T12:17:51.607Z,58.22
2023-03-03T12:20:31.406Z,57.81
2023-03-03T12:23:11.520Z,55.65
2023-03-03T12:25:43.487Z,55.89
2023-03-03T12:28:16.723Z,56.39
2023-03-03T12:31:04.470Z,54.38
2023-03-03T12:33:43.682Z,55.43
2023-03-03T12:36:20.050Z,54.94
2023-03-03T12:38:55.230Z,54.37
2023-03-03T12:41:28.944Z,55.17
2023-03-03T12:44:03.819Z,53.63
2023-03-03T12:46:41.661Z,54.25
2023-03-03T12:49:09.302Z,52.17
2023-03-03T12:51:48.792Z,50.06
2023-03-03T12:54:37.483Z,48.78
2023-03-03T12:57:16.052Z,49.04
2023-03-03T12:59:55.782Z,50.41
2023-03-03T13:02:42.548Z,50.22
2023-03-03T13:05:21.236Z,50.48
2023-03-03T13:07:57.643Z,53.07
2023-03-03T13:10:32.313Z,52.16
2023-03-03T13:13:05.408Z,49.56
2023-03-03T13:15:39.720Z,50.26
2023-03-03T13:18:35.503Z,50.51
2023-03-03T13:21:11.285Z,51.79
2023-03-03T13:23:48.866Z,52.13
2023-03-03T13:26:23.628Z,53.40
2023-03-03T13:29:03.621Z,50.91
2023-03-03T13:31:35.983Z,49.50
2023-03-03T13:34:04.079Z,48.43
2023-03-03T13:36:39.944Z,46.56
2023-03-03T13:39:18.918Z,47.65
2023-03-03T13:41:52.683Z,48.76
2023-03-03T13:44:26.630Z,49.86
2023-03-03T13:47:06.604Z,49.94
2023-03-03T13:49:48.838Z,48.76
2023-03-03T13:52:22.193Z,48.64
2023-03-03T13:55:13.891Z,48.86
2023-03-03T13:57:55.631Z,48.37
2023-03-03T14:00:33.334Z,47.50
2023-03-03T14:03:23.698Z,48.82
2023-03-03T14:05:52.580Z,46.75
2023-03-03T14:08:32.555Z,46.42
2023-03-03T14:11:11.117Z,46.49
2023-03-03T14:13:45.621Z,48.28
2023-03-03T14:16:20.577Z,46.62
2023-03-03T14:18:57.905Z,47.88
2023-03-03T14:21:30.746Z,47.17
2023-03-03T14:24:08.437Z,46.65
2023-03-03T14:26:49.483Z,47.65
2023-03-03T14:29:22.792Z,47.40
2023-03-03T14:31:50.712Z,46.64
2023-03-03T14:34:36.088Z,45.85
2023-03-03T14:37:22.940Z,46.24
2023-03-03T14:40:02.021Z,46.38
2023-03-03T14:42:38.038Z,48.11
2023-03-03T14:45:29.345Z,46.23
2023-03-03T14:48:11.901Z,47.47
2023-03-03T14:50:41.518Z,47.67
2023-03-03T14:53:23.759Z,47.02
2023-03-03T14:55:53.619Z,48.21
2023-03-03T14:58:29.540Z,50.02
2023-03-03T15:01:15.476Z,50.60
2023-03-03T15:03:49.133Z,50.31
2023-03-03T15:06:31.239Z,50.46
2023-03-03T15:09:24.810Z,51.39
2023-03-03T15:11:53.832Z,50.49
2023-03-03T15:14:31.154Z,51.41
2023-03-03T15:17:14.762Z,51.32
2023-03-03T15:19:48.785Z,52.29
2023-03-03T15:22:28.192Z,52.70
2023-03-03T15:25:02.060Z,52.67
2023-03-03T15:27:35.650Z,52.89
2023-03-03T15:30:16.089Z,53.06
2023-03-03T15:32:50.175Z,53.33
2023-03-03T15:35:32.089Z,53.54
2023-03-03T15:38:04.854Z,53.12
2023-03-03T15:40:40.913Z,53.24
2023-03-03T15:43:21.111Z,53.24
2023-03-03T15:45:59.602Z,53.89
2023-03-03T15:48:47.333Z,52.96
2023-03-03T15:51:24.772Z,53.50
2023-03-03T15:54:14.775Z,52.96
2023-03-03T15:56:50.749Z,53.63
2023-03-03T15:59:43.548Z,54.10
2023-03-03T16:02:18.089Z,53.63
2023-03-03T16:04:55.021Z,53.53
2023-03-03T16:07:37.172Z,53.26
2023-03-03T16:10:16.407Z,54.50
2023-03-03T16:12:53.006Z,54.17
2023-03-03T16:15:31.512Z,53.25
2023-03-03T16:18:09.629Z,53.75
2023-03-03T16:20:43.389Z,53.73
2023-03-03T16:23:21.636Z,52.14
2023-03-03T16:25:59.274Z,52.62
2023-03-03T16:28:36.507Z,52.67
2023-03-03T16:31:10.547Z,54.42
2023-03-03T16:33:50.467Z,54.77
2023-03-03T16:36:28.759Z,53.82
2023-03-03T16:39:04.157Z,55.78
2023-03-03T16:41:43.956Z,56.91
2023-03-03T16:44:25.062Z,57.37
2023-03-03T16:46:52.742Z,56.18
2023-03-03T16:49:28.299Z,56.33
2023-03-03T16:52:03.981Z,57.77
2023-03-03T16:54:40.247Z,57.04
2023-03-03T16:57:17.544Z,57.93
2023-03-03T17:00:03.009Z,57.59
2023-03-03T17:02:56.608Z,59.02
2023-03-03T17:05:37.896Z,58.99
2023-03-03T17:08:24.233Z,59.99
2023-03-03T17:10:57.407Z,59.39
2023-03-03T17:13:48.796Z,59.07
2023-03-03T17:16:23.430Z,59.27
2023-03-03T17:19:01.886Z,59.54
2023-03-03T17:21:40.199Z,59.68
2023-03-03T17:24:20.804Z,60.45
2023-03-03T17:26:58.866Z,60.71
2023-03-03T17:29:40.285Z,62.20
2023-03-03T17:32:22.659Z,65.02
2023-03-03T17:35:05.677Z,66.41
2023-03-03T17:37:44.716Z,67.14
2023-03-03T17:40:42.450Z,69.06
2023-03-03T17:43:16.435Z,71.00
2023-03-03T17:45:47.479Z,74.89
2023-03-03T17:48:39.252Z,78.77
2023-03-03T17:51:18.921Z,77.39
2023-03-03T17:54:04.032Z,77.99
2023-03-03T17:56:37.894Z,80.09
2023-03-03T17:59:19.786Z,81.72
2023-03-03T18:02:16.381Z,82.82
2023-03-03T18:05:07.010Z,82.65
2023-03-03T18:07:46.972Z,83.90
2023-03-03T18:10:49.975Z,86.33
2023-03-03T18:13:34.338Z,86.73
2023-03-03T18:16:17.563Z,86.91
2023-03-03T18:19:00.849Z,87.42
2023-03-03T18:21:35.179Z,88.00
2023-03-03T18:24:28.529Z,89.26
2023-03-03T18:27:13.345Z,89.70
2023-03-03T18:29:41.011Z,90.68
2023-03-03T18:32:22.844Z,91.90
2023-03-03T18:35:25.526Z,92.21
2023-03-03T18:37:53.837Z,92.85
2023-03-03T18:40:33.352Z,92.01
2023-03-03T18:43:41.733Z,93.33
2023-03-03T18:46:13.377Z,93.30
2023-03-03T18:48:50.319Z,94.67
2023-03-03T18:51:52.216Z,95.81
2023-03-03T18:54:33.287Z,95.91
2023-03-03T18:57:18.310Z,96.51
2023-03-03T19:00:02.008Z,97.33
2023-03-03T19:02:38.888Z,94.93
2023-03-03T19:05:19.422Z,96.17
2023-03-03T19:07:52.202Z,93.45
2023-03-03T19:10:49.498Z,93.33
2023-03-03T19:13:48.037Z,95.88
2023-03-03T19:16:37.744Z,96.97
2023-03-03T19:19:13.568Z,97.43
2023-03-03T19:21:42.734Z,97.88
2023-03-03T19:24:29.087Z,98.26
2023-03-03T19:27:13.709Z,99.37
2023-03-03T19:30:22.514Z,99.13
2023-03-03T19:33:12.508Z,100.00
2023-03-03T19:35:50.361Z,100.00
2023-03-03T19:38:32.745Z,100.00
2023-03-03T19:41:12.090Z,100.00
2023-03-03T19:43:48.287Z,100.00
2023-03-03T19:46:33.369Z,100.00
2023-03-03T19:49:11.599Z,100.00
2023-03-03T19:51:48.276Z,100.00
2023-03-03T19:54:26.832Z,100.00
2023-03-03T19:56:56.451Z,100.00
2023-03-03T19:59:32.313Z,100.00
2023-03-03T20:02:28.501Z,100.00
2023-03-03T20:05:13.760Z,100.00
2023-03-03T20:07:48.957Z,100.00
2023-03-03T20:10:34.842Z,100.00
2023-03-03T20:13:13.296Z,100.00
2023-03-03T20:15:51.351Z,100.00
2023-03-03T20:18:38.909Z,100.00
2023-03-03T20:21:17.167Z,100.00
2023-03-03T20:23:57.916Z,100.00
2023-03-03T20:26:32.585Z,100.00
2023-03-03T20:29:31.657Z,100.00
2023-03-03T20:32:11.135Z,100.00
2023-03-03T20:34:49.169Z,100.00
2023-03-03T20:37:26.342Z,100.00
2023-03-03T20:40:05.443Z,100.00
2023-03-03T20:42:44.522Z,100.00
2023-03-03T20:45:29.460Z,100.00
2023-03-03T20:48:12.169Z,100.00
2023-03-03T20:50:52.242Z,100.00
2023-03-03T20:53:28.529Z,100.00
2023-03-03T20:56:04.518Z,100.00
2023-03-03T20:58:43.763Z,100.00
2023-03-03T21:01:15.519Z,100.00
2023-03-03T21:03:45.169Z,100.00
2023-03-03T21:06:16.113Z,100.00
2023-03-03T21:08:49.436Z,100.00
2023-03-03T21:11:18.875Z,100.00
2023-03-03T21:13:49.411Z,100.00
2023-03-03T21:16:31.257Z,100.00
2023-03-03T21:19:00.435Z,100.00
2023-03-03T21:21:30.309Z,100.00
2023-03-03T21:24:00.012Z,100.00
2023-03-03T21:26:48.622Z,100.00
2023-03-03T21:29:25.493Z,100.00
2023-03-03T21:31:55.907Z,100.00
2023-03-03T21:34:29.493Z,100.00
2023-03-03T21:36:57.685Z,100.00
2023-03-03T21:39:29.441Z,100.00
2023-03-03T21:41:59.838Z,100.00
2023-03-03T21:44:32.692Z,100.00
2023-03-03T21:47:00.537Z,100.00
2023-03-03T21:49:28.728Z,100.00
2023-03-03T21:51:57.264Z,100.00
2023-03-03T21:54:25.110Z,100.00
2023-03-03T21:56:55.103Z,100.00
2023-03-03T21:59:22.844Z,100.00
2023-03-03T22:01:50.473Z,100.00
2023-03-03T22:04:18.138Z,100.00
2023-03-03T22:06:46.100Z,100.00
2023-03-03T22:09:13.994Z,100.00
2023-03-03T22:11:41.880Z,100.00
2023-03-03T22:14:11.157Z,100.00
2023-03-03T22:16:38.826Z,100.00
2023-03-03T22:19:09.096Z,100.00
2023-03-03T22:21:37.753Z,100.00
2023-03-03T22:24:06.526Z,100.00
2023-03-03T22:26:35.312Z,100.00
2023-03-03T22:29:03.044Z,100.00
2023-03-03T22:31:32.215Z,100.00
2023-03-03T22:34:00.117Z,100.00
2023-03-03T22:36:27.777Z,100.00
2023-03-03T22:38:55.515Z,100.00
2023-03-03T22:41:23.275Z,100.00
2023-03-03T22:43:50.903Z,100.00
2023-03-03T22:46:18.582Z,100.00
2023-03-03T22:48:47.960Z,100.00
2023-03-03T22:51:15.636Z,100.00
2023-03-03T22:53:43.349Z,100.00
2023-03-03T22:56:10.950Z,100.00
2023-03-03T22:58:38.680Z,100.00
2023-03-03T23:01:06.305Z,100.00
2023-03-03T23:03:34.038Z,100.00
2023-03-03T23:06:03.067Z,100.00
2023-03-03T23:08:30.726Z,100.00
2023-03-03T23:10:58.307Z,100.00
2023-03-03T23:13:27.042Z,100.00
2023-03-03T23:15:58.332Z,100.00
2023-03-03T23:18:26.013Z,100.00
2023-03-03T23:20:53.626Z,100.00
2023-03-03T23:23:23.093Z,100.00
2023-03-03T23:25:50.718Z,100.00
2023-03-03T23:28:19.178Z,100.00
2023-03-03T23:30:46.886Z,100.00
2023-03-03T23:33:14.800Z,100.00
2023-03-03T23:35:42.537Z,100.00
2023-03-03T23:38:15.175Z,100.00
2023-03-03T23:40:46.550Z,100.00
2023-03-03T23:43:14.211Z,100.00
2023-03-03T23:45:41.854Z,100.00
2023-03-03T23:48:09.585Z,100.00
2023-03-03T23:50:37.967Z,100.00
2023-03-03T23:53:06.932Z,100.00
2023-03-03T23:55:34.741Z,100.00
2023-03-03T23:58:03.870Z,100.00
